Time;durP1;ratioP1;P1;durP2;ratioP2;P2;SDS_P1;SDS_P2;PMS_P1;PMS_P2;Temp;Humidity;BMP_temperature;BMP_pressure;BME280_temperature;BME280_humidity;BME280_pressure;Samples;Min_cycle;Max_cycle;Signal;HPM_P1;HPM_P2
2021/03/07 00:01:53;;;;;;;12.40;6.50;;;;;;;-3.48;63.94;97162.34;4877431;29;20040;-83
2021/03/07 00:04:18;;;;;;;12.07;6.40;;;;;;;-3.43;63.90;97154.47;4869693;29;20150;-83
2021/03/07 00:06:44;;;;;;;12.43;5.33;;;;;;;-3.59;64.39;97156.69;4884985;29;20465;-80
2021/03/07 00:09:10;;;;;;;10.97;5.90;;;;;;;-3.54;64.56;97156.56;4867949;29;20047;-83
2021/03/07 00:11:35;;;;;;;13.17;6.40;;;;;;;-3.50;64.66;97155.56;4895191;29;20103;-78
2021/03/07 00:14:01;;;;;;;12.10;5.93;;;;;;;-3.56;64.69;97152.28;4899174;29;20032;-81
2021/03/07 00:16:26;;;;;;;10.53;5.80;;;;;;;-3.73;65.39;97149.44;4890954;29;20056;-82
2021/03/07 00:18:55;;;;;;;10.47;5.50;;;;;;;-3.86;66.02;97156.69;4879733;29;20037;-83
2021/03/07 00:21:21;;;;;;;11.27;5.82;;;;;;;-3.98;66.74;97154.50;4890517;29;20037;-80
2021/03/07 00:23:47;;;;;;;12.30;6.50;;;;;;;-3.82;66.11;97157.44;4909830;29;20028;-81
2021/03/07 00:26:12;;;;;;;9.93;5.00;;;;;;;-3.78;65.56;97143.59;4910226;29;20132;-82
2021/03/07 00:28:38;;;;;;;10.90;5.30;;;;;;;-3.83;66.18;97142.91;4880503;29;20028;-83
2021/03/07 00:31:04;;;;;;;9.77;5.60;;;;;;;-3.84;66.34;97143.81;4897326;29;20040;-81
2021/03/07 00:33:30;;;;;;;9.38;5.53;;;;;;;-3.85;65.95;97148.09;4888394;29;20032;-82
2021/03/07 00:35:57;;;;;;;8.87;5.27;;;;;;;-3.88;65.65;97155.91;4894757;29;20040;-81
2021/03/07 00:38:23;;;;;;;11.10;5.40;;;;;;;-3.79;65.10;97149.63;4896025;29;20092;-83
2021/03/07 00:40:49;;;;;;;11.03;5.80;;;;;;;-3.74;64.51;97150.31;4899332;29;20362;-82
2021/03/07 00:43:15;;;;;;;9.57;5.18;;;;;;;-3.69;64.92;97153.59;4905132;29;20111;-83
2021/03/07 00:45:41;;;;;;;9.88;5.30;;;;;;;-3.75;64.59;97148.66;4881439;29;20565;-83
2021/03/07 00:48:07;;;;;;;10.37;5.60;;;;;;;-3.71;64.33;97155.38;4906967;29;20036;-83
2021/03/07 00:50:33;;;;;;;11.25;5.20;;;;;;;-3.67;63.97;97148.41;4896284;29;20060;-79
2021/03/07 00:52:59;;;;;;;9.67;5.20;;;;;;;-3.67;63.98;97150.97;4911185;29;20080;-83
2021/03/07 00:55:25;;;;;;;10.20;4.83;;;;;;;-3.64;64.08;97151.69;4889761;29;20468;-83
2021/03/07 00:57:52;;;;;;;8.82;4.78;;;;;;;-3.73;64.03;97146.84;4894321;29;20044;-83
2021/03/07 01:00:26;;;;;;;11.07;5.43;;;;;;;-3.80;64.17;97140.22;4874262;29;20044;-83
2021/03/07 01:02:52;;;;;;;12.68;4.97;;;;;;;-3.79;63.93;97129.06;4872092;29;20510;-83
2021/03/07 01:05:18;;;;;;;11.63;5.60;;;;;;;-3.82;64.19;97126.63;4899747;29;20041;-83
2021/03/07 01:07:45;;;;;;;10.80;4.95;;;;;;;-3.78;64.34;97125.63;4907044;29;20171;-83
2021/03/07 01:10:16;;;;;;;8.13;4.60;;;;;;;-3.80;64.18;97127.38;4896036;29;20092;-83
2021/03/07 01:12:42;;;;;;;8.70;4.55;;;;;;;-3.93;64.68;97120.97;4909108;29;20078;-83
2021/03/07 01:15:09;;;;;;;13.73;5.28;;;;;;;-3.89;64.73;97119.97;4892219;29;20072;-83
2021/03/07 01:17:35;;;;;;;10.05;5.25;;;;;;;-3.87;64.58;97118.19;4907734;29;20123;-80
2021/03/07 01:20:11;;;;;;;11.18;5.18;;;;;;;-4.01;64.83;97120.38;4872766;29;20048;-82
2021/03/07 01:22:36;;;;;;;9.13;5.10;;;;;;;-4.00;65.54;97114.34;4893297;29;20609;-83
2021/03/07 01:25:05;;;;;;;11.97;5.50;;;;;;;-4.00;64.85;97117.75;4912753;29;20044;-82
2021/03/07 01:27:31;;;;;;;10.07;5.53;;;;;;;-3.98;65.18;97110.00;4888273;29;20029;-83
2021/03/07 01:29:56;;;;;;;9.50;5.40;;;;;;;-4.05;65.57;97102.50;4882787;29;20046;-82
2021/03/07 01:32:22;;;;;;;9.50;5.40;;;;;;;-4.09;65.85;97102.63;4892064;29;20103;-83
2021/03/07 01:34:48;;;;;;;9.67;5.17;;;;;;;-4.05;65.59;97099.09;4902649;29;20035;-82
2021/03/07 01:37:13;;;;;;;12.23;6.23;;;;;;;-4.11;65.82;97091.56;4890419;29;20111;-82
2021/03/07 01:39:39;;;;;;;11.13;5.67;;;;;;;-4.12;66.18;97089.91;4875736;29;20051;-81
2021/03/07 01:42:09;;;;;;;12.43;6.27;;;;;;;-4.17;66.48;97087.44;4905413;29;20490;-83
2021/03/07 01:44:35;;;;;;;9.80;5.00;;;;;;;-4.13;66.36;97083.06;4879564;29;20064;-83
2021/03/07 01:47:04;;;;;;;18.33;8.57;;;;;;;-4.11;66.22;97082.13;4882759;29;20260;-83
2021/03/07 01:49:31;;;;;;;18.80;8.07;;;;;;;-4.14;66.17;97074.50;4891014;29;20095;-82
2021/03/07 01:51:56;;;;;;;12.60;6.50;;;;;;;-4.25;66.46;97079.16;4894405;29;20087;-80
2021/03/07 01:54:22;;;;;;;13.87;6.80;;;;;;;-4.25;66.52;97068.88;4895864;29;20032;-82
2021/03/07 01:56:53;;;;;;;10.10;5.20;;;;;;;-4.30;66.70;97068.19;4890836;29;20036;-82
2021/03/07 01:59:24;;;;;;;9.52;5.20;;;;;;;-4.35;66.67;97075.19;4910240;29;20071;-82
2021/03/07 02:01:51;;;;;;;9.77;4.93;;;;;;;-4.38;67.39;97067.59;4893120;29;20072;-82
2021/03/07 02:04:16;;;;;;;11.25;5.13;;;;;;;-4.39;67.00;97073.59;4882943;29;20032;-83
2021/03/07 02:06:42;;;;;;;13.53;5.43;;;;;;;-4.50;67.78;97061.09;4881569;29;20103;-83
2021/03/07 02:09:08;;;;;;;12.83;5.67;;;;;;;-4.57;67.86;97062.16;4873457;29;20029;-83
2021/03/07 02:11:37;;;;;;;12.15;6.03;;;;;;;-4.66;68.82;97059.88;4882200;29;20040;-80
2021/03/07 02:14:04;;;;;;;14.52;6.70;;;;;;;-4.66;68.86;97049.63;4869562;29;20055;-83
2021/03/07 02:16:30;;;;;;;15.68;7.40;;;;;;;-4.77;69.14;97052.50;4899740;29;20562;-83
2021/03/07 02:18:56;;;;;;;10.63;6.38;;;;;;;-4.62;68.86;97046.94;4872725;29;20088;-83
2021/03/07 02:21:23;;;;;;;13.83;6.87;;;;;;;-4.65;68.76;97044.44;4901098;29;20442;-83
2021/03/07 02:24:08;;;;;;;11.50;6.07;;;;;;;-4.65;68.62;97039.31;4906690;29;20055;-83
2021/03/07 02:26:44;;;;;;;11.25;5.90;;;;;;;-4.69;68.40;97029.16;4908163;29;20047;-77
2021/03/07 02:29:11;;;;;;;11.30;5.72;;;;;;;-4.70;68.74;97025.78;4903752;29;20033;-82
2021/03/07 02:31:51;;;;;;;10.52;5.70;;;;;;;-4.72;68.03;97019.88;4864284;29;20196;-82
2021/03/07 02:34:40;;;;;;;10.13;5.18;;;;;;;-4.74;68.58;97019.06;4879184;29;20503;-83
2021/03/07 02:37:08;;;;;;;12.45;5.95;;;;;;;-4.88;69.63;97013.50;4904280;29;20063;-82
2021/03/07 02:39:36;;;;;;;15.43;6.75;;;;;;;-4.99;70.41;97017.25;4884498;29;20029;-82
2021/03/07 02:42:08;;;;;;;10.75;5.53;;;;;;;-5.03;70.51;97015.66;4896957;29;20032;-82
2021/03/07 02:44:35;;;;;;;11.77;5.43;;;;;;;-4.98;70.45;97007.81;4878219;29;20115;-81
2021/03/07 02:47:02;;;;;;;12.13;6.65;;;;;;;-4.98;70.25;97002.69;4883326;29;20035;-81
2021/03/07 02:49:31;;;;;;;10.95;5.50;;;;;;;-4.93;70.00;96995.69;4891331;29;20020;-81
2021/03/07 02:51:58;;;;;;;11.77;5.78;;;;;;;-4.99;70.52;96991.59;4907028;29;20036;-82
2021/03/07 02:54:25;;;;;;;10.63;5.47;;;;;;;-5.07;70.95;96987.56;4879019;29;20051;-82
2021/03/07 02:56:53;;;;;;;11.48;5.60;;;;;;;-5.19;71.61;96988.78;4877465;29;20501;-81
2021/03/07 02:59:22;;;;;;;13.00;5.88;;;;;;;-5.16;72.09;96985.25;4902927;29;20037;-81
2021/03/07 03:01:55;;;;;;;9.63;5.32;;;;;;;-5.24;71.93;96985.50;4882946;29;20500;-81
2021/03/07 03:04:22;;;;;;;10.23;5.30;;;;;;;-5.09;71.09;96977.38;4908764;29;20033;-81
2021/03/07 03:06:48;;;;;;;12.23;5.22;;;;;;;-5.12;70.85;96977.44;4889706;29;20041;-82
2021/03/07 03:09:16;;;;;;;13.25;5.20;;;;;;;-5.00;70.49;96971.09;4896636;29;20036;-81
2021/03/07 03:11:42;;;;;;;10.75;5.50;;;;;;;-5.00;70.47;96968.53;4888055;29;20040;-82
2021/03/07 03:14:13;;;;;;;9.47;4.77;;;;;;;-4.91;70.00;96968.25;4897848;29;20498;-81
2021/03/07 03:16:45;;;;;;;10.95;4.95;;;;;;;-4.94;69.86;96967.53;4874938;29;20060;-81
2021/03/07 03:19:11;;;;;;;9.73;4.90;;;;;;;-4.93;69.32;96969.19;4875888;29;20040;-82
2021/03/07 03:21:39;;;;;;;9.85;4.97;;;;;;;-4.94;69.17;96970.09;4892188;29;20059;-82
2021/03/07 03:24:07;;;;;;;10.55;5.25;;;;;;;-4.81;68.75;96979.91;4906583;29;20561;-82
2021/03/07 03:26:33;;;;;;;11.77;5.57;;;;;;;-4.74;68.71;96981.41;4885288;29;20037;-81
2021/03/07 03:29:01;;;;;;;14.00;6.35;;;;;;;-4.76;68.11;96975.50;4897349;29;20044;-82
2021/03/07 03:31:27;;;;;;;12.25;5.72;;;;;;;-4.83;68.79;96980.84;4884955;29;20072;-81
2021/03/07 03:33:53;;;;;;;10.60;5.50;;;;;;;-4.95;69.37;96991.50;4874426;29;20501;-82
2021/03/07 03:36:18;;;;;;;11.80;5.53;;;;;;;-4.96;70.07;96988.09;4888138;29;20482;-81
2021/03/07 03:38:53;;;;;;;10.10;5.50;;;;;;;-4.94;69.38;96990.59;4875527;29;20490;-80
2021/03/07 03:41:24;;;;;;;10.38;5.10;;;;;;;-4.94;69.42;96982.91;4890558;29;20051;-81
2021/03/07 03:43:53;;;;;;;9.85;5.47;;;;;;;-4.98;69.30;96983.00;4880992;29;20071;-81
2021/03/07 03:46:21;;;;;;;11.27;5.03;;;;;;;-4.93;68.88;96989.72;4887589;29;20112;-81
2021/03/07 03:48:53;;;;;;;9.25;5.15;;;;;;;-4.99;69.07;96989.03;4864389;29;20025;-80
2021/03/07 03:51:20;;;;;;;11.13;5.15;;;;;;;-5.10;69.23;96987.66;4880854;29;20039;-81
2021/03/07 03:53:47;;;;;;;12.57;5.60;;;;;;;-5.29;70.37;96987.38;4884863;29;20032;-81
2021/03/07 03:56:17;;;;;;;9.98;5.15;;;;;;;-5.50;71.51;96984.53;4901769;29;20032;-81
2021/03/07 03:58:43;;;;;;;9.13;4.93;;;;;;;-5.48;71.21;96990.44;4878102;29;20055;-81
2021/03/07 04:01:11;;;;;;;10.32;4.60;;;;;;;-5.47;71.26;96984.41;4909533;29;20028;-78
2021/03/07 04:03:39;;;;;;;10.68;4.80;;;;;;;-5.45;71.75;96977.53;4905444;29;20059;-80
2021/03/07 04:06:05;;;;;;;9.95;4.72;;;;;;;-5.52;71.57;96977.75;4885541;29;20079;-81
2021/03/07 04:08:31;;;;;;;9.18;4.85;;;;;;;-5.65;72.34;96984.13;4887956;29;20104;-81
2021/03/07 04:10:57;;;;;;;10.60;4.90;;;;;;;-5.62;71.91;96978.91;4907715;29;20419;-81
2021/03/07 04:13:26;;;;;;;9.63;4.65;;;;;;;-5.71;72.22;96980.00;4881306;29;20071;-81
2021/03/07 04:15:52;;;;;;;9.65;4.68;;;;;;;-5.71;72.93;96980.00;4864730;29;20029;-80
2021/03/07 04:18:22;;;;;;;9.65;4.95;;;;;;;-5.66;72.54;96977.31;4912193;29;20082;-81
2021/03/07 04:20:48;;;;;;;9.75;4.63;;;;;;;-5.57;72.16;96977.88;4900422;29;20056;-81
2021/03/07 04:23:14;;;;;;;11.32;5.40;;;;;;;-5.68;71.96;96974.78;4870962;29;20037;-81
2021/03/07 04:25:41;;;;;;;11.43;5.30;;;;;;;-5.69;72.37;96968.00;4873369;29;20028;-81
2021/03/07 04:28:08;;;;;;;9.70;5.28;;;;;;;-5.68;72.77;96977.34;4886839;29;20491;-81
2021/03/07 04:30:36;;;;;;;10.88;4.93;;;;;;;-5.64;72.12;96962.72;4888803;29;20401;-81
2021/03/07 04:33:02;;;;;;;9.57;4.93;;;;;;;-5.60;72.23;96961.75;4881806;29;20454;-81
2021/03/07 04:35:32;;;;;;;10.77;5.53;;;;;;;-5.65;71.68;96961.88;4874203;29;20024;-79
2021/03/07 04:38:04;;;;;;;8.27;5.20;;;;;;;-5.68;72.11;96961.97;4904174;29;20045;-81
2021/03/07 04:40:31;;;;;;;7.63;4.53;;;;;;;-5.70;72.17;96959.47;4884701;29;20131;-78
2021/03/07 04:42:58;;;;;;;10.55;5.60;;;;;;;-5.71;72.15;96954.38;4866690;29;20028;-80
2021/03/07 04:45:24;;;;;;;10.55;5.35;;;;;;;-5.65;72.10;96948.25;4876992;29;20394;-81
2021/03/07 04:47:50;;;;;;;8.32;4.45;;;;;;;-5.74;72.59;96950.16;4882322;29;20052;-81
2021/03/07 04:50:16;;;;;;;9.43;4.83;;;;;;;-5.89;73.19;96957.44;4891564;29;20430;-81
2021/03/07 04:52:43;;;;;;;11.60;5.60;;;;;;;-5.75;73.18;96951.06;4887980;29;20410;-81
2021/03/07 04:55:15;;;;;;;10.98;5.32;;;;;;;-5.53;71.61;96943.63;4905417;29;20484;-81
2021/03/07 04:57:41;;;;;;;9.18;4.55;;;;;;;-5.39;70.67;96939.81;4889257;29;20108;-81
2021/03/07 05:00:10;;;;;;;10.60;5.27;;;;;;;-5.31;70.39;96938.69;4879419;29;20044;-81
2021/03/07 05:02:35;;;;;;;13.50;6.65;;;;;;;-5.57;71.95;96936.88;4886932;29;20044;-78
2021/03/07 05:05:02;;;;;;;14.33;7.57;;;;;;;-5.57;71.65;96936.88;4873237;29;20029;-80
2021/03/07 05:07:27;;;;;;;14.68;7.45;;;;;;;-5.73;72.39;96933.94;4884396;29;20047;-80
2021/03/07 05:09:53;;;;;;;15.80;7.63;;;;;;;-5.84;72.85;96938.50;4892933;29;20040;-80
2021/03/07 05:12:19;;;;;;;12.47;6.10;;;;;;;-5.77;72.76;96929.78;4886515;29;20460;-81
2021/03/07 05:14:45;;;;;;;11.73;5.93;;;;;;;-5.68;72.03;96933.78;4884243;29;20025;-81
2021/03/07 05:17:11;;;;;;;9.77;5.07;;;;;;;-5.32;70.57;96928.50;4895671;29;20081;-81
2021/03/07 05:19:38;;;;;;;10.47;4.93;;;;;;;-5.13;69.91;96927.06;4886234;29;20045;-81
2021/03/07 05:22:03;;;;;;;9.85;4.18;;;;;;;-5.02;69.39;96926.72;4913165;29;20020;-79
2021/03/07 05:24:29;;;;;;;8.83;4.20;;;;;;;-5.01;69.15;96918.97;4904236;29;20044;-81
2021/03/07 05:26:55;;;;;;;9.47;5.20;;;;;;;-5.03;69.38;96918.19;4877048;29;20033;-81
2021/03/07 05:29:21;;;;;;;8.38;4.65;;;;;;;-4.91;68.97;96916.13;4913599;29;20047;-80
2021/03/07 05:31:47;;;;;;;9.97;4.77;;;;;;;-4.94;69.04;96911.09;4911748;29;20048;-81
2021/03/07 05:34:12;;;;;;;8.17;4.13;;;;;;;-4.99;69.23;96911.25;4884154;29;20057;-80
2021/03/07 05:36:38;;;;;;;7.70;3.40;;;;;;;-5.03;69.73;96913.06;4888675;29;20024;-80
2021/03/07 05:39:04;;;;;;;7.33;3.97;;;;;;;-4.99;69.61;96906.94;4873703;29;20040;-81
2021/03/07 05:41:30;;;;;;;8.75;4.53;;;;;;;-4.99;69.30;96898.41;4885728;29;20071;-81
2021/03/07 05:43:56;;;;;;;10.13;4.85;;;;;;;-5.02;69.61;96898.50;4889051;29;20158;-80
2021/03/07 05:46:22;;;;;;;10.87;6.23;;;;;;;-5.14;69.98;96899.72;4878776;29;20072;-81
2021/03/07 05:48:48;;;;;;;9.20;4.60;;;;;;;-5.27;70.52;96895.84;4872943;29;20044;-81
2021/03/07 05:51:15;;;;;;;9.67;4.23;;;;;;;-5.26;70.27;96895.00;4884283;29;20035;-81
2021/03/07 05:53:45;;;;;;;10.35;4.47;;;;;;;-5.13;70.27;96896.28;4882495;29;20037;-81
2021/03/07 05:56:11;;;;;;;15.70;4.63;;;;;;;-5.00;69.89;96892.47;4886547;29;20585;-80
2021/03/07 05:58:39;;;;;;;11.13;5.18;;;;;;;-4.89;69.35;96896.41;4890149;29;20100;-81
2021/03/07 06:01:05;;;;;;;8.32;5.40;;;;;;;-4.79;69.38;96887.53;4889512;29;20052;-81
2021/03/07 06:03:31;;;;;;;8.33;3.73;;;;;;;-4.58;67.86;96889.38;4878242;29;20047;-81
2021/03/07 06:05:57;;;;;;;8.70;4.07;;;;;;;-4.48;67.69;96884.78;4895592;29;20029;-79
2021/03/07 06:08:22;;;;;;;11.23;5.97;;;;;;;-4.12;66.60;96880.09;4889110;29;20064;-81
2021/03/07 06:10:48;;;;;;;8.10;4.37;;;;;;;-3.79;65.40;96879.78;4904466;29;20033;-81
2021/03/07 06:13:14;;;;;;;7.97;3.33;;;;;;;-3.53;64.46;96875.41;4900064;29;20461;-81
2021/03/07 06:15:44;;;;;;;7.83;4.27;;;;;;;-3.10;62.87;96870.28;4897586;29;20028;-79
2021/03/07 06:18:17;;;;;;;8.60;3.92;;;;;;;-2.75;61.43;96860.34;4882074;29;20041;-81
2021/03/07 06:20:44;;;;;;;5.85;2.65;;;;;;;-2.26;60.59;96852.28;4897470;29;20044;-81
2021/03/07 06:23:10;;;;;;;9.23;3.83;;;;;;;-2.59;60.31;96857.94;4885492;29;20104;-81
2021/03/07 06:25:52;;;;;;;8.73;4.50;;;;;;;-2.57;60.45;96853.59;4871974;29;20036;-80
2021/03/07 06:28:26;;;;;;;9.32;3.67;;;;;;;-2.15;59.25;96847.50;4887280;29;20157;-81
2021/03/07 06:30:53;;;;;;;8.13;3.47;;;;;;;-2.08;59.07;96842.91;4903559;29;20064;-80
2021/03/07 06:33:39;;;;;;;11.73;4.50;;;;;;;-1.50;57.55;96827.44;4903044;29;20060;-81
2021/03/07 06:36:23;;;;;;;12.27;5.07;;;;;;;-1.38;56.72;96831.16;4881704;29;20071;-81
2021/03/07 06:38:57;;;;;;;8.00;3.88;;;;;;;-1.17;56.15;96824.16;4874829;29;20476;-79
2021/03/07 06:41:28;;;;;;;7.50;3.63;;;;;;;-0.71;55.51;96828.78;4908206;29;20505;-81
2021/03/07 06:44:14;;;;;;;7.87;3.93;;;;;;;-0.37;54.16;96819.38;4887293;29;20469;-81
2021/03/07 06:46:44;;;;;;;7.83;3.40;;;;;;;-0.01;52.19;96813.19;4884117;29;20468;-80
2021/03/07 06:49:26;;;;;;;6.87;3.53;;;;;;;-0.08;52.16;96822.19;4899619;29;20464;-82
2021/03/07 06:51:55;;;;;;;8.87;4.60;;;;;;;-0.13;53.45;96819.03;4897613;29;20480;-81
2021/03/07 06:54:21;;;;;;;8.80;3.90;;;;;;;-0.13;53.00;96819.03;4877688;29;20477;-81
2021/03/07 06:56:49;;;;;;;7.23;4.00;;;;;;;0.13;52.25;96821.06;4884732;29;20618;-81
2021/03/07 06:59:33;;;;;;;7.20;3.70;;;;;;;-0.01;52.87;96815.78;4881645;29;20479;-80
2021/03/07 07:01:59;;;;;;;7.93;4.72;;;;;;;0.47;51.71;96814.94;4878825;29;20492;-81
2021/03/07 07:04:39;;;;;;;8.27;3.87;;;;;;;0.73;51.38;96819.59;4899521;29;20028;-81
2021/03/07 07:07:17;;;;;;;8.07;3.60;;;;;;;1.42;50.14;96819.13;4882288;29;20489;-82
2021/03/07 07:09:48;;;;;;;8.10;3.67;;;;;;;1.22;51.06;96837.59;4868625;29;21002;-81
2021/03/07 07:12:24;;;;;;;8.77;4.87;;;;;;;1.09;51.52;96829.66;4884065;29;20480;-80
2021/03/07 07:15:01;;;;;;;9.43;4.87;;;;;;;1.26;50.77;96831.31;4865303;29;20507;-81
2021/03/07 07:17:29;;;;;;;8.93;4.23;;;;;;;2.13;48.20;96824.41;4878576;29;20504;-82
2021/03/07 07:19:56;;;;;;;8.40;3.87;;;;;;;1.99;48.80;96828.78;4902276;29;21006;-81
2021/03/07 07:22:21;;;;;;;8.00;4.50;;;;;;;1.57;48.55;96820.00;4898664;29;20475;-81
2021/03/07 07:24:48;;;;;;;7.13;4.17;;;;;;;1.64;48.68;96823.88;4882856;29;20551;-79
2021/03/07 07:27:13;;;;;;;13.13;6.67;;;;;;;2.15;46.93;96818.28;4898312;29;20036;-81
2021/03/07 07:29:39;;;;;;;16.77;9.17;;;;;;;1.98;47.11;96812.38;4880096;29;20552;-81
2021/03/07 07:32:12;;;;;;;8.10;3.90;;;;;;;1.41;48.46;96813.13;4872776;29;20103;-80
2021/03/07 07:34:59;;;;;;;7.10;3.80;;;;;;;2.01;47.75;96811.34;4881147;29;20484;-78
2021/03/07 07:37:38;;;;;;;6.87;3.60;;;;;;;2.82;46.06;96814.13;4879424;29;20488;-81
2021/03/07 07:40:06;;;;;;;8.80;3.93;;;;;;;2.79;46.53;96809.94;4884424;29;20993;-80
2021/03/07 07:42:34;;;;;;;8.07;3.93;;;;;;;3.00;45.61;96801.72;4868724;29;20464;-80
2021/03/07 07:45:12;;;;;;;8.13;3.73;;;;;;;2.85;45.67;96803.53;4884452;29;20491;-80
2021/03/07 07:47:49;;;;;;;8.73;4.00;;;;;;;2.65;47.66;96812.59;4872234;29;20653;-79
2021/03/07 07:50:34;;;;;;;8.83;4.30;;;;;;;2.13;49.64;96815.78;4882437;29;21009;-81
2021/03/07 07:53:12;;;;;;;10.53;5.33;;;;;;;3.09;47.39;96816.72;4887889;29;20468;-81
2021/03/07 07:55:56;;;;;;;9.83;4.47;;;;;;;2.86;47.43;96809.56;4866645;29;20460;-80
2021/03/07 07:58:38;;;;;;;7.43;4.30;;;;;;;2.98;47.52;96807.00;4882585;29;20465;-81
2021/03/07 08:01:11;;;;;;;7.73;4.37;;;;;;;3.70;45.17;96801.47;4878763;29;20472;-80
2021/03/07 08:03:49;;;;;;;7.23;3.80;;;;;;;3.77;44.96;96795.72;4888489;29;20464;-79
2021/03/07 08:06:24;;;;;;;6.60;3.77;;;;;;;4.83;43.43;96793.59;4874079;29;20471;-81
2021/03/07 08:08:50;;;;;;;9.30;5.13;;;;;;;5.46;40.59;96788.16;4888596;29;20610;-78
2021/03/07 08:11:19;;;;;;;9.30;4.83;;;;;;;4.87;42.90;96784.59;4896172;29;20487;-81
2021/03/07 08:13:49;;;;;;;9.97;6.20;;;;;;;5.16;40.70;96784.25;4885324;29;21045;-81
2021/03/07 08:16:36;;;;;;;11.40;6.00;;;;;;;5.29;41.54;96778.97;4875675;29;20536;-79
2021/03/07 08:19:02;;;;;;;23.60;10.93;;;;;;;5.78;41.23;96770.91;4898060;29;20533;-80
2021/03/07 08:21:27;;;;;;;10.23;5.40;;;;;;;5.53;41.16;96774.53;4892645;29;20844;-81
2021/03/07 08:23:58;;;;;;;7.97;4.77;;;;;;;5.24;42.10;96781.09;4875314;29;20059;-82
2021/03/07 08:26:45;;;;;;;20.27;9.87;;;;;;;6.66;38.47;96767.59;4898557;29;20593;-79
2021/03/07 08:29:38;;;;;;;21.53;9.13;;;;;;;5.82;40.01;96767.13;4894231;29;20033;-80
2021/03/07 08:32:32;;;;;;;9.60;5.22;;;;;;;6.01;39.44;96760.53;4893423;29;20056;-82
2021/03/07 08:35:11;;;;;;;6.18;3.10;;;;;;;5.60;39.41;96769.69;4890118;29;20607;-81
2021/03/07 08:37:37;;;;;;;8.37;4.90;;;;;;;5.57;39.85;96772.56;4895045;29;20173;-80
2021/03/07 08:40:33;;;;;;;9.93;5.17;;;;;;;4.85;42.08;96770.00;4884895;29;20036;-81
2021/03/07 08:43:20;;;;;;;9.07;4.70;;;;;;;7.02;38.26;96757.78;4879765;29;20077;-80
2021/03/07 08:46:05;;;;;;;9.90;5.13;;;;;;;5.81;39.51;96755.03;4870220;29;20032;-78
2021/03/07 08:48:32;;;;;;;8.27;4.53;;;;;;;6.23;38.40;96754.47;4882824;29;20134;-79
2021/03/07 08:51:00;;;;;;;8.17;4.20;;;;;;;6.48;38.76;96754.22;4883430;29;20028;-79
2021/03/07 08:53:27;;;;;;;7.67;4.50;;;;;;;6.56;37.84;96753.59;4896589;29;20076;-80
2021/03/07 08:55:53;;;;;;;8.57;4.70;;;;;;;5.15;41.50;96761.75;4883811;29;20084;-80
2021/03/07 08:58:19;;;;;;;9.97;5.07;;;;;;;6.36;39.22;96752.56;4883811;29;20029;-79
2021/03/07 09:00:47;;;;;;;9.33;4.60;;;;;;;6.83;37.97;96748.78;4895044;29;20116;-79
2021/03/07 09:03:13;;;;;;;9.00;4.97;;;;;;;7.66;36.67;96746.41;4888791;29;20112;-81
2021/03/07 09:05:39;;;;;;;7.30;3.80;;;;;;;8.34;35.03;96742.31;4882863;29;20470;-80
2021/03/07 09:08:05;;;;;;;7.53;4.50;;;;;;;8.10;34.91;96747.88;4902407;29;20028;-78
2021/03/07 09:10:46;;;;;;;7.93;4.47;;;;;;;8.83;34.55;96742.47;4895778;29;20047;-81
2021/03/07 09:13:21;;;;;;;9.10;4.53;;;;;;;7.86;35.95;96729.84;4894469;29;20484;-80
2021/03/07 09:16:01;;;;;;;7.50;4.50;;;;;;;8.22;35.12;96723.25;4883526;29;20115;-79
2021/03/07 09:18:33;;;;;;;11.57;4.53;;;;;;;9.67;32.29;96716.47;4886442;29;20136;-80
2021/03/07 09:21:01;;;;;;;9.53;4.83;;;;;;;9.53;32.09;96723.00;4912268;29;20073;-80
2021/03/07 09:23:35;;;;;;;7.60;4.23;;;;;;;7.27;36.19;96726.03;4886481;29;20033;-80
2021/03/07 09:26:08;;;;;;;7.20;4.63;;;;;;;7.51;36.57;96727.56;4902617;29;20030;-80
2021/03/07 09:28:44;;;;;;;8.60;4.90;;;;;;;9.20;34.04;96717.22;4874017;29;20443;-81
2021/03/07 09:31:17;;;;;;;10.73;5.00;;;;;;;8.51;35.05;96717.28;4891643;29;20051;-80
2021/03/07 09:33:50;;;;;;;8.55;4.90;;;;;;;10.00;32.33;96706.44;4889144;29;20040;-80
2021/03/07 09:36:17;;;;;;;5.60;3.58;;;;;;;10.90;30.71;96692.56;4883500;29;20498;-80
2021/03/07 09:38:45;;;;;;;9.10;5.40;;;;;;;10.81;31.41;96696.88;4902463;29;20040;-80
2021/03/07 09:41:12;;;;;;;8.80;5.00;;;;;;;10.97;30.88;96698.88;4887522;29;20081;-81
2021/03/07 09:43:44;;;;;;;8.13;4.90;;;;;;;9.89;32.41;96696.91;4878115;29;20040;-78
2021/03/07 09:46:10;;;;;;;8.03;5.03;;;;;;;10.25;32.35;96697.06;4899364;29;20043;-81
2021/03/07 09:48:39;;;;;;;8.43;5.33;;;;;;;11.63;30.91;96686.19;4898845;29;20115;-80
2021/03/07 09:51:14;;;;;;;10.00;5.00;;;;;;;11.63;31.00;96691.47;4872888;29;20063;-81
2021/03/07 09:53:41;;;;;;;7.40;4.77;;;;;;;12.23;31.09;96680.97;4887363;29;20052;-81
2021/03/07 09:56:29;;;;;;;10.50;5.50;;;;;;;11.61;30.91;96682.91;4899616;29;20112;-80
2021/03/07 09:59:08;;;;;;;79.80;44.07;;;;;;;9.47;33.67;96686.81;4890462;29;20044;-80
2021/03/07 10:01:50;;;;;;;9.83;6.03;;;;;;;11.63;31.36;96676.50;4899544;29;20028;-79
2021/03/07 10:04:41;;;;;;;7.77;5.00;;;;;;;12.29;32.60;96674.25;4881049;29;20124;-80
2021/03/07 10:07:10;;;;;;;7.73;5.10;;;;;;;11.34;30.63;96682.06;4892971;29;20088;-81
2021/03/07 10:10:31;;;;;;;8.40;5.77;;;;;;;11.92;30.40;96670.94;4891455;29;20028;-81
2021/03/07 10:12:59;;;;;;;7.67;5.17;;;;;;;12.53;30.42;96665.56;4827501;29;20577;-80
2021/03/07 10:15:39;;;;;;;8.27;5.53;;;;;;;13.25;30.08;96658.78;4901060;29;20047;-81
2021/03/07 10:18:13;;;;;;;9.47;6.50;;;;;;;12.90;29.84;96652.78;4869653;29;20043;-82
2021/03/07 10:20:42;;;;;;;17.50;11.00;;;;;;;12.39;30.29;96651.19;4895168;29;20041;-80
2021/03/07 10:23:09;;;;;;;9.20;6.53;;;;;;;11.13;31.73;96652.59;4888604;29;20096;-81
2021/03/07 10:25:37;;;;;;;8.47;5.60;;;;;;;11.45;32.16;96641.47;4879952;29;20062;-81
2021/03/07 10:28:08;;;;;;;10.63;6.17;;;;;;;12.21;31.67;96648.69;4887307;29;20029;-81
2021/03/07 10:30:44;;;;;;;15.83;10.93;;;;;;;12.15;31.71;96649.31;4888902;29;20029;-81
2021/03/07 10:33:27;;;;;;;13.73;10.07;;;;;;;12.60;30.24;96643.66;4871686;29;20120;-80
2021/03/07 10:36:26;;;;;;;9.48;6.55;;;;;;;12.67;29.56;96642.03;4904683;29;20051;-80
2021/03/07 10:39:18;;;;;;;9.33;6.33;;;;;;;13.05;30.48;96638.94;4853933;29;20049;-79
2021/03/07 10:41:44;;;;;;;9.03;6.00;;;;;;;12.59;31.39;96651.75;4891939;29;20064;-80
2021/03/07 10:44:10;;;;;;;9.03;6.23;;;;;;;13.20;30.50;96639.94;4890118;29;20024;-81
2021/03/07 10:46:42;;;;;;;8.63;6.10;;;;;;;12.77;30.73;96633.94;4908501;29;20047;-81
2021/03/07 10:49:10;;;;;;;16.40;5.87;;;;;;;11.15;33.50;96640.13;4900258;29;20044;-82
2021/03/07 10:51:36;;;;;;;9.00;6.40;;;;;;;12.29;31.75;96632.88;4897747;29;20464;-80
2021/03/07 10:54:04;;;;;;;12.33;6.60;;;;;;;12.12;32.15;96631.97;4895310;29;20020;-81
2021/03/07 10:56:31;;;;;;;10.73;6.50;;;;;;;12.20;33.51;96632.00;4879452;29;20033;-82
2021/03/07 10:59:00;;;;;;;10.57;7.40;;;;;;;13.42;31.68;96618.16;4889713;29;20040;-82
2021/03/07 11:01:26;;;;;;;9.57;6.83;;;;;;;14.04;30.51;96612.19;4890124;29;20434;-82
2021/03/07 11:03:52;;;;;;;9.77;6.13;;;;;;;12.18;32.19;96622.63;4882811;29;20033;-80
2021/03/07 11:06:19;;;;;;;10.30;6.40;;;;;;;11.57;34.07;96622.63;4876712;29;20047;-81
2021/03/07 11:08:46;;;;;;;8.17;6.00;;;;;;;11.68;33.48;96620.72;4870215;29;20040;-79
2021/03/07 11:11:12;;;;;;;9.80;6.77;;;;;;;11.68;33.71;96615.44;4893656;29;20032;-80
2021/03/07 11:13:38;;;;;;;9.17;6.50;;;;;;;11.62;34.24;96618.72;4897547;29;20080;-79
2021/03/07 11:16:04;;;;;;;10.33;7.30;;;;;;;12.14;33.02;96616.00;4907991;29;20032;-81
2021/03/07 11:18:30;;;;;;;12.00;6.53;;;;;;;12.65;32.43;96614.16;4871098;29;20060;-80
2021/03/07 11:20:56;;;;;;;9.03;6.00;;;;;;;13.38;31.46;96610.72;4885578;29;20544;-81
2021/03/07 11:23:22;;;;;;;10.03;6.83;;;;;;;12.97;31.84;96614.16;4900784;29;20036;-81
2021/03/07 11:25:48;;;;;;;10.23;7.00;;;;;;;13.35;31.56;96603.97;4900126;29;20024;-81
2021/03/07 11:28:14;;;;;;;9.33;6.70;;;;;;;13.38;31.75;96605.44;4873006;29;20035;-81
2021/03/07 11:30:39;;;;;;;11.77;8.80;;;;;;;13.05;32.67;96600.16;4902145;29;20140;-81
2021/03/07 11:33:06;;;;;;;9.73;6.73;;;;;;;11.98;32.61;96607.06;4887873;29;20037;-81
2021/03/07 11:35:32;;;;;;;11.73;8.20;;;;;;;12.41;33.43;96597.31;4899277;29;20047;-81
2021/03/07 11:37:59;;;;;;;9.37;7.10;;;;;;;11.43;34.04;96596.84;4890772;29;20035;-83
2021/03/07 11:40:28;;;;;;;11.17;7.50;;;;;;;10.50;35.60;96596.47;4891908;29;20032;-80
2021/03/07 11:42:57;;;;;;;11.63;7.87;;;;;;;10.34;36.30;96596.31;4903679;29;20040;-81
2021/03/07 11:45:23;;;;;;;13.30;9.17;;;;;;;11.37;34.98;96602.75;4885648;29;20031;-81